sensor_id;sensor_type;location;lat;lon;timestamp;P1;durP1;ratioP1;P2;durP2;ratioP2
7205;SDS011;3644;53.480;10.004;2022-09-09T00:06:53;42.57;;;29.77;;
7205;SDS011;3644;53.480;10.004;2022-09-09T00:09:46;37.03;;;27.27;;
7205;SDS011;3644;53.480;10.004;2022-09-09T00:15:14;33.27;;;26.43;;
7205;SDS011;3644;53.480;10.004;2022-09-09T00:20:35;44.00;;;27.57;;
7205;SDS011;3644;53.480;10.004;2022-09-09T00:23:12;49.07;;;29.00;;
7205;SDS011;3644;53.480;10.004;2022-09-09T00:25:58;63.57;;;29.17;;
7205;SDS011;3644;53.480;10.004;2022-09-09T00:29:04;47.33;;;28.27;;
7205;SDS011;3644;53.480;10.004;2022-09-09T00:31:36;61.93;;;29.97;;
7205;SDS011;3644;53.480;10.004;2022-09-09T00:34:09;48.43;;;28.80;;
7205;SDS011;3644;53.480;10.004;2022-09-09T00:36:37;82.63;;;29.47;;
7205;SDS011;3644;53.480;10.004;2022-09-09T00:39:04;41.47;;;26.00;;
7205;SDS011;3644;53.480;10.004;2022-09-09T00:44:35;50.77;;;24.77;;
7205;SDS011;3644;53.480;10.004;2022-09-09T00:55:22;37.70;;;24.57;;
7205;SDS011;3644;53.480;10.004;2022-09-09T00:57:59;42.53;;;26.30;;
7205;SDS011;3644;53.480;10.004;2022-09-09T01:00:28;50.77;;;25.40;;
7205;SDS011;3644;53.480;10.004;2022-09-09T01:11:37;46.43;;;25.37;;
7205;SDS011;3644;53.480;10.004;2022-09-09T01:25:28;95.67;;;26.37;;
7205;SDS011;3644;53.480;10.004;2022-09-09T01:28:14;33.07;;;23.50;;
7205;SDS011;3644;53.480;10.004;2022-09-09T01:30:44;45.03;;;26.90;;
7205;SDS011;3644;53.480;10.004;2022-09-09T01:33:13;47.20;;;28.47;;
7205;SDS011;3644;53.480;10.004;2022-09-09T01:35:53;84.57;;;25.70;;
7205;SDS011;3644;53.480;10.004;2022-09-09T01:38:25;47.03;;;26.40;;
7205;SDS011;3644;53.480;10.004;2022-09-09T01:40:51;50.47;;;24.27;;
7205;SDS011;3644;53.480;10.004;2022-09-09T01:43:21;106.17;;;25.23;;
7205;SDS011;3644;53.480;10.004;2022-09-09T01:45:49;58.37;;;23.47;;
7205;SDS011;3644;53.480;10.004;2022-09-09T01:48:18;43.63;;;24.57;;
7205;SDS011;3644;53.480;10.004;2022-09-09T01:50:46;56.73;;;22.70;;
7205;SDS011;3644;53.480;10.004;2022-09-09T01:53:11;90.70;;;22.40;;
7205;SDS011;3644;53.480;10.004;2022-09-09T01:55:39;39.23;;;21.07;;
7205;SDS011;3644;53.480;10.004;2022-09-09T02:00:50;120.03;;;21.33;;
7205;SDS011;3644;53.480;10.004;2022-09-09T02:03:25;68.93;;;19.10;;
7205;SDS011;3644;53.480;10.004;2022-09-09T02:08:52;41.03;;;18.87;;
7205;SDS011;3644;53.480;10.004;2022-09-09T02:11:22;62.90;;;17.90;;
7205;SDS011;3644;53.480;10.004;2022-09-09T02:13:51;45.87;;;17.73;;
7205;SDS011;3644;53.480;10.004;2022-09-09T02:19:06;42.87;;;15.67;;
7205;SDS011;3644;53.480;10.004;2022-09-09T02:21:33;30.20;;;16.13;;
7205;SDS011;3644;53.480;10.004;2022-09-09T02:24:02;29.67;;;16.40;;
7205;SDS011;3644;53.480;10.004;2022-09-09T02:26:33;32.20;;;16.60;;
7205;SDS011;3644;53.480;10.004;2022-09-09T02:29:05;40.83;;;14.43;;
7205;SDS011;3644;53.480;10.004;2022-09-09T02:31:39;35.27;;;15.43;;
7205;SDS011;3644;53.480;10.004;2022-09-09T02:34:09;40.43;;;14.00;;
7205;SDS011;3644;53.480;10.004;2022-09-09T02:36:37;39.93;;;13.20;;
7205;SDS011;3644;53.480;10.004;2022-09-09T02:39:07;33.73;;;12.90;;
7205;SDS011;3644;53.480;10.004;2022-09-09T02:41:36;13.23;;;11.57;;
7205;SDS011;3644;53.480;10.004;2022-09-09T02:44:13;24.93;;;12.37;;
7205;SDS011;3644;53.480;10.004;2022-09-09T02:52:32;24.07;;;12.27;;
7205;SDS011;3644;53.480;10.004;2022-09-09T02:58:03;40.07;;;12.53;;
7205;SDS011;3644;53.480;10.004;2022-09-09T03:00:32;18.90;;;12.80;;
7205;SDS011;3644;53.480;10.004;2022-09-09T03:03:01;25.13;;;13.30;;
7205;SDS011;3644;53.480;10.004;2022-09-09T03:05:28;22.47;;;12.67;;
7205;SDS011;3644;53.480;10.004;2022-09-09T03:07:53;21.27;;;12.77;;
7205;SDS011;3644;53.480;10.004;2022-09-09T03:10:19;21.43;;;12.07;;
7205;SDS011;3644;53.480;10.004;2022-09-09T03:12:44;31.83;;;13.20;;
7205;SDS011;3644;53.480;10.004;2022-09-09T03:15:10;32.73;;;12.10;;
7205;SDS011;3644;53.480;10.004;2022-09-09T03:17:36;21.63;;;12.37;;
7205;SDS011;3644;53.480;10.004;2022-09-09T03:20:02;17.30;;;12.20;;
7205;SDS011;3644;53.480;10.004;2022-09-09T03:22:29;37.27;;;12.60;;
7205;SDS011;3644;53.480;10.004;2022-09-09T03:24:54;25.97;;;12.23;;
7205;SDS011;3644;53.480;10.004;2022-09-09T03:27:20;20.97;;;12.90;;
7205;SDS011;3644;53.480;10.004;2022-09-09T03:29:46;20.13;;;11.80;;
7205;SDS011;3644;53.480;10.004;2022-09-09T03:32:11;16.00;;;11.87;;
7205;SDS011;3644;53.480;10.004;2022-09-09T03:34:37;19.83;;;12.00;;
7205;SDS011;3644;53.480;10.004;2022-09-09T03:37:05;26.00;;;11.83;;
7205;SDS011;3644;53.480;10.004;2022-09-09T03:39:31;19.13;;;13.07;;
7205;SDS011;3644;53.480;10.004;2022-09-09T03:41:56;26.33;;;12.40;;
7205;SDS011;3644;53.480;10.004;2022-09-09T03:44:22;36.87;;;12.40;;
7205;SDS011;3644;53.480;10.004;2022-09-09T03:46:47;12.60;;;10.07;;
7205;SDS011;3644;53.480;10.004;2022-09-09T03:49:13;30.17;;;12.00;;
7205;SDS011;3644;53.480;10.004;2022-09-09T03:51:38;43.63;;;11.80;;
7205;SDS011;3644;53.480;10.004;2022-09-09T03:54:05;14.80;;;10.97;;
7205;SDS011;3644;53.480;10.004;2022-09-09T03:56:33;42.93;;;11.17;;
7205;SDS011;3644;53.480;10.004;2022-09-09T03:58:59;17.50;;;10.40;;
7205;SDS011;3644;53.480;10.004;2022-09-09T04:01:25;18.20;;;11.50;;
7205;SDS011;3644;53.480;10.004;2022-09-09T04:03:50;12.50;;;11.20;;
7205;SDS011;3644;53.480;10.004;2022-09-09T04:06:17;52.17;;;11.93;;
7205;SDS011;3644;53.480;10.004;2022-09-09T04:08:45;27.50;;;11.80;;
7205;SDS011;3644;53.480;10.004;2022-09-09T04:11:13;16.03;;;12.03;;
7205;SDS011;3644;53.480;10.004;2022-09-09T04:13:39;24.63;;;11.90;;
7205;SDS011;3644;53.480;10.004;2022-09-09T04:16:05;37.73;;;12.03;;
7205;SDS011;3644;53.480;10.004;2022-09-09T04:18:31;20.20;;;12.37;;
7205;SDS011;3644;53.480;10.004;2022-09-09T04:20:58;16.13;;;12.87;;
7205;SDS011;3644;53.480;10.004;2022-09-09T04:23:24;14.07;;;12.60;;
7205;SDS011;3644;53.480;10.004;2022-09-09T04:25:52;17.27;;;13.40;;
7205;SDS011;3644;53.480;10.004;2022-09-09T04:28:20;14.60;;;12.70;;
7205;SDS011;3644;53.480;10.004;2022-09-09T04:30:48;14.33;;;12.83;;
7205;SDS011;3644;53.480;10.004;2022-09-09T04:33:13;15.43;;;12.87;;
7205;SDS011;3644;53.480;10.004;2022-09-09T04:35:43;14.10;;;12.60;;
7205;SDS011;3644;53.480;10.004;2022-09-09T04:38:13;17.70;;;15.60;;
7205;SDS011;3644;53.480;10.004;2022-09-09T04:40:41;15.50;;;14.00;;
7205;SDS011;3644;53.480;10.004;2022-09-09T04:43:08;20.77;;;15.23;;
7205;SDS011;3644;53.480;10.004;2022-09-09T04:45:34;16.50;;;13.30;;
7205;SDS011;3644;53.480;10.004;2022-09-09T04:47:59;17.80;;;14.43;;
7205;SDS011;3644;53.480;10.004;2022-09-09T04:50:25;28.27;;;15.03;;
7205;SDS011;3644;53.480;10.004;2022-09-09T04:52:51;19.20;;;14.93;;
7205;SDS011;3644;53.480;10.004;2022-09-09T04:55:16;16.47;;;14.77;;
7205;SDS011;3644;53.480;10.004;2022-09-09T04:57:42;17.33;;;15.13;;
7205;SDS011;3644;53.480;10.004;2022-09-09T05:00:08;19.43;;;16.03;;
7205;SDS011;3644;53.480;10.004;2022-09-09T05:02:37;15.60;;;13.50;;
7205;SDS011;3644;53.480;10.004;2022-09-09T05:05:03;18.17;;;13.83;;
7205;SDS011;3644;53.480;10.004;2022-09-09T05:07:29;16.80;;;15.10;;
7205;SDS011;3644;53.480;10.004;2022-09-09T05:09:56;18.20;;;13.27;;
7205;SDS011;3644;53.480;10.004;2022-09-09T05:12:22;15.17;;;12.57;;
7205;SDS011;3644;53.480;10.004;2022-09-09T05:14:48;16.13;;;13.90;;
7205;SDS011;3644;53.480;10.004;2022-09-09T05:17:14;23.00;;;13.93;;
7205;SDS011;3644;53.480;10.004;2022-09-09T05:19:41;19.07;;;14.87;;
7205;SDS011;3644;53.480;10.004;2022-09-09T05:22:06;17.53;;;13.93;;
7205;SDS011;3644;53.480;10.004;2022-09-09T05:24:32;18.13;;;13.10;;
7205;SDS011;3644;53.480;10.004;2022-09-09T05:26:58;15.83;;;12.57;;
7205;SDS011;3644;53.480;10.004;2022-09-09T05:29:24;16.27;;;12.93;;
7205;SDS011;3644;53.480;10.004;2022-09-09T05:31:51;17.67;;;13.83;;
7205;SDS011;3644;53.480;10.004;2022-09-09T05:34:17;13.53;;;12.13;;
7205;SDS011;3644;53.480;10.004;2022-09-09T05:36:42;15.87;;;14.00;;
7205;SDS011;3644;53.480;10.004;2022-09-09T05:39:08;16.00;;;12.10;;
7205;SDS011;3644;53.480;10.004;2022-09-09T05:41:33;14.97;;;12.53;;
7205;SDS011;3644;53.480;10.004;2022-09-09T05:44:00;18.30;;;15.00;;
7205;SDS011;3644;53.480;10.004;2022-09-09T05:46:26;27.30;;;12.93;;
7205;SDS011;3644;53.480;10.004;2022-09-09T05:48:52;17.57;;;13.57;;
7205;SDS011;3644;53.480;10.004;2022-09-09T05:51:19;16.03;;;13.27;;
7205;SDS011;3644;53.480;10.004;2022-09-09T05:53:51;17.37;;;12.60;;
7205;SDS011;3644;53.480;10.004;2022-09-09T05:56:17;15.17;;;12.40;;
7205;SDS011;3644;53.480;10.004;2022-09-09T05:58:46;15.23;;;13.73;;
7205;SDS011;3644;53.480;10.004;2022-09-09T06:01:15;18.10;;;12.27;;
7205;SDS011;3644;53.480;10.004;2022-09-09T06:03:45;12.73;;;11.30;;
7205;SDS011;3644;53.480;10.004;2022-09-09T06:06:17;18.70;;;12.00;;
7205;SDS011;3644;53.480;10.004;2022-09-09T06:08:45;16.30;;;13.00;;
7205;SDS011;3644;53.480;10.004;2022-09-09T06:11:13;19.03;;;12.90;;
7205;SDS011;3644;53.480;10.004;2022-09-09T06:13:40;13.27;;;11.70;;
7205;SDS011;3644;53.480;10.004;2022-09-09T06:16:10;15.37;;;11.50;;
7205;SDS011;3644;53.480;10.004;2022-09-09T06:18:37;18.57;;;11.90;;
7205;SDS011;3644;53.480;10.004;2022-09-09T06:21:04;14.50;;;12.60;;
7205;SDS011;3644;53.480;10.004;2022-09-09T06:23:31;12.57;;;11.23;;
7205;SDS011;3644;53.480;10.004;2022-09-09T06:26:05;13.13;;;11.10;;
7205;SDS011;3644;53.480;10.004;2022-09-09T06:28:33;14.10;;;12.60;;
7205;SDS011;3644;53.480;10.004;2022-09-09T06:30:59;17.17;;;12.27;;
7205;SDS011;3644;53.480;10.004;2022-09-09T06:33:26;14.83;;;13.17;;
7205;SDS011;3644;53.480;10.004;2022-09-09T06:35:55;14.60;;;12.03;;
7205;SDS011;3644;53.480;10.004;2022-09-09T06:38:22;14.27;;;11.07;;
7205;SDS011;3644;53.480;10.004;2022-09-09T06:40:52;15.70;;;10.40;;
7205;SDS011;3644;53.480;10.004;2022-09-09T06:43:19;19.03;;;11.47;;
7205;SDS011;3644;53.480;10.004;2022-09-09T06:45:52;11.30;;;10.20;;
7205;SDS011;3644;53.480;10.004;2022-09-09T06:48:21;12.47;;;10.73;;
7205;SDS011;3644;53.480;10.004;2022-09-09T06:50:47;13.63;;;10.83;;
7205;SDS011;3644;53.480;10.004;2022-09-09T06:53:16;11.60;;;10.40;;
7205;SDS011;3644;53.480;10.004;2022-09-09T06:55:43;14.20;;;11.73;;
7205;SDS011;3644;53.480;10.004;2022-09-09T06:58:10;14.17;;;10.53;;
7205;SDS011;3644;53.480;10.004;2022-09-09T07:00:36;12.50;;;10.30;;
7205;SDS011;3644;53.480;10.004;2022-09-09T07:03:03;12.40;;;10.70;;
7205;SDS011;3644;53.480;10.004;2022-09-09T07:05:30;12.17;;;9.90;;
7205;SDS011;3644;53.480;10.004;2022-09-09T07:07:55;11.57;;;9.60;;
7205;SDS011;3644;53.480;10.004;2022-09-09T07:10:21;12.90;;;9.00;;
7205;SDS011;3644;53.480;10.004;2022-09-09T07:12:50;9.77;;;8.67;;
7205;SDS011;3644;53.480;10.004;2022-09-09T07:15:17;9.70;;;8.63;;
7205;SDS011;3644;53.480;10.004;2022-09-09T07:17:43;11.17;;;9.80;;
7205;SDS011;3644;53.480;10.004;2022-09-09T07:20:09;10.47;;;8.70;;
7205;SDS011;3644;53.480;10.004;2022-09-09T07:22:36;11.93;;;8.30;;
7205;SDS011;3644;53.480;10.004;2022-09-09T07:25:01;10.77;;;8.20;;
7205;SDS011;3644;53.480;10.004;2022-09-09T07:27:28;9.93;;;7.50;;
7205;SDS011;3644;53.480;10.004;2022-09-09T07:29:53;10.20;;;8.00;;
7205;SDS011;3644;53.480;10.004;2022-09-09T07:32:19;8.40;;;7.47;;
7205;SDS011;3644;53.480;10.004;2022-09-09T07:34:45;9.07;;;7.30;;
7205;SDS011;3644;53.480;10.004;2022-09-09T07:37:11;10.53;;;6.90;;
7205;SDS011;3644;53.480;10.004;2022-09-09T07:39:38;12.20;;;7.20;;
7205;SDS011;3644;53.480;10.004;2022-09-09T07:42:04;11.80;;;6.93;;
7205;SDS011;3644;53.480;10.004;2022-09-09T07:44:30;8.70;;;7.10;;
7205;SDS011;3644;53.480;10.004;2022-09-09T07:46:59;16.20;;;7.10;;
7205;SDS011;3644;53.480;10.004;2022-09-09T07:49:25;8.20;;;7.03;;
7205;SDS011;3644;53.480;10.004;2022-09-09T07:51:51;13.33;;;7.53;;
7205;SDS011;3644;53.480;10.004;2022-09-09T07:54:17;7.67;;;6.30;;
7205;SDS011;3644;53.480;10.004;2022-09-09T07:56:48;7.40;;;6.70;;
7205;SDS011;3644;53.480;10.004;2022-09-09T07:59:14;12.20;;;6.57;;
7205;SDS011;3644;53.480;10.004;2022-09-09T08:01:48;10.30;;;6.50;;
7205;SDS011;3644;53.480;10.004;2022-09-09T08:04:18;9.53;;;5.80;;
7205;SDS011;3644;53.480;10.004;2022-09-09T08:06:56;7.77;;;5.63;;
7205;SDS011;3644;53.480;10.004;2022-09-09T08:09:23;9.37;;;6.23;;
7205;SDS011;3644;53.480;10.004;2022-09-09T08:11:51;6.23;;;5.67;;
7205;SDS011;3644;53.480;10.004;2022-09-09T08:14:17;7.10;;;5.40;;
7205;SDS011;3644;53.480;10.004;2022-09-09T08:16:45;9.23;;;5.60;;
7205;SDS011;3644;53.480;10.004;2022-09-09T08:19:12;6.03;;;5.30;;
7205;SDS011;3644;53.480;10.004;2022-09-09T08:21:38;5.47;;;4.83;;
7205;SDS011;3644;53.480;10.004;2022-09-09T08:24:05;8.10;;;4.60;;
7205;SDS011;3644;53.480;10.004;2022-09-09T08:26:33;10.53;;;5.10;;
7205;SDS011;3644;53.480;10.004;2022-09-09T08:29:01;5.03;;;4.53;;
7205;SDS011;3644;53.480;10.004;2022-09-09T08:31:30;6.03;;;5.10;;
7205;SDS011;3644;53.480;10.004;2022-09-09T08:33:58;7.30;;;4.60;;
7205;SDS011;3644;53.480;10.004;2022-09-09T08:36:25;6.90;;;4.50;;
7205;SDS011;3644;53.480;10.004;2022-09-09T08:38:54;10.60;;;4.70;;
7205;SDS011;3644;53.480;10.004;2022-09-09T08:44:10;7.60;;;5.00;;
7205;SDS011;3644;53.480;10.004;2022-09-09T08:46:44;6.40;;;4.53;;
7205;SDS011;3644;53.480;10.004;2022-09-09T08:52:29;5.17;;;4.67;;
7205;SDS011;3644;53.480;10.004;2022-09-09T08:55:44;5.83;;;4.40;;
7205;SDS011;3644;53.480;10.004;2022-09-09T08:57:54;10.60;;;6.43;;
7205;SDS011;3644;53.480;10.004;2022-09-09T09:00:22;7.90;;;4.73;;
7205;SDS011;3644;53.480;10.004;2022-09-09T09:11:05;9.00;;;4.30;;
7205;SDS011;3644;53.480;10.004;2022-09-09T09:16:33;4.70;;;3.70;;
7205;SDS011;3644;53.480;10.004;2022-09-09T09:19:21;9.27;;;4.10;;
7205;SDS011;3644;53.480;10.004;2022-09-09T09:21:50;4.27;;;3.80;;
7205;SDS011;3644;53.480;10.004;2022-09-09T09:26:57;6.83;;;4.07;;
7205;SDS011;3644;53.480;10.004;2022-09-09T09:29:26;9.03;;;3.60;;
7205;SDS011;3644;53.480;10.004;2022-09-09T09:31:52;5.83;;;4.30;;
7205;SDS011;3644;53.480;10.004;2022-09-09T09:34:20;10.33;;;3.60;;
7205;SDS011;3644;53.480;10.004;2022-09-09T09:36:53;6.03;;;3.40;;
7205;SDS011;3644;53.480;10.004;2022-09-09T09:39:24;4.93;;;2.50;;
7205;SDS011;3644;53.480;10.004;2022-09-09T09:41:54;10.43;;;3.40;;
7205;SDS011;3644;53.480;10.004;2022-09-09T09:44:23;4.73;;;3.30;;
7205;SDS011;3644;53.480;10.004;2022-09-09T09:46:51;2.90;;;2.60;;
7205;SDS011;3644;53.480;10.004;2022-09-09T09:49:17;6.40;;;3.20;;
7205;SDS011;3644;53.480;10.004;2022-09-09T09:51:43;5.30;;;2.77;;
7205;SDS011;3644;53.480;10.004;2022-09-09T09:56:48;9.60;;;3.03;;
7205;SDS011;3644;53.480;10.004;2022-09-09T09:59:20;3.23;;;2.50;;
7205;SDS011;3644;53.480;10.004;2022-09-09T10:01:47;2.90;;;2.60;;
7205;SDS011;3644;53.480;10.004;2022-09-09T10:06:45;4.10;;;2.00;;
7205;SDS011;3644;53.480;10.004;2022-09-09T10:09:29;5.97;;;2.70;;
7205;SDS011;3644;53.480;10.004;2022-09-09T10:12:04;2.40;;;1.87;;
7205;SDS011;3644;53.480;10.004;2022-09-09T10:19:56;6.83;;;1.80;;
7205;SDS011;3644;53.480;10.004;2022-09-09T10:22:33;4.60;;;1.63;;
7205;SDS011;3644;53.480;10.004;2022-09-09T10:25:17;2.57;;;1.60;;
7205;SDS011;3644;53.480;10.004;2022-09-09T10:28:10;2.13;;;1.43;;
7205;SDS011;3644;53.480;10.004;2022-09-09T10:36:20;7.30;;;1.70;;
7205;SDS011;3644;53.480;10.004;2022-09-09T10:49:50;5.13;;;1.40;;
7205;SDS011;3644;53.480;10.004;2022-09-09T10:52:33;5.30;;;1.27;;
7205;SDS011;3644;53.480;10.004;2022-09-09T10:55:06;5.10;;;1.77;;
7205;SDS011;3644;53.480;10.004;2022-09-09T10:57:39;3.17;;;1.40;;
7205;SDS011;3644;53.480;10.004;2022-09-09T11:00:18;4.63;;;1.30;;
7205;SDS011;3644;53.480;10.004;2022-09-09T11:02:47;2.53;;;1.20;;
7205;SDS011;3644;53.480;10.004;2022-09-09T11:05:23;1.37;;;1.13;;
7205;SDS011;3644;53.480;10.004;2022-09-09T11:07:59;8.97;;;1.23;;
7205;SDS011;3644;53.480;10.004;2022-09-09T11:10:39;6.73;;;2.80;;
7205;SDS011;3644;53.480;10.004;2022-09-09T11:16:16;20.30;;;7.43;;
7205;SDS011;3644;53.480;10.004;2022-09-09T11:18:44;2.70;;;2.07;;
7205;SDS011;3644;53.480;10.004;2022-09-09T11:21:15;18.27;;;11.00;;
7205;SDS011;3644;53.480;10.004;2022-09-09T11:23:49;11.43;;;8.30;;
7205;SDS011;3644;53.480;10.004;2022-09-09T11:26:28;18.50;;;12.43;;
7205;SDS011;3644;53.480;10.004;2022-09-09T11:29:14;6.83;;;3.67;;
7205;SDS011;3644;53.480;10.004;2022-09-09T11:31:56;4.10;;;2.20;;
7205;SDS011;3644;53.480;10.004;2022-09-09T11:34:44;4.87;;;2.53;;
7205;SDS011;3644;53.480;10.004;2022-09-09T11:40:28;5.93;;;2.17;;
7205;SDS011;3644;53.480;10.004;2022-09-09T11:43:09;5.80;;;2.60;;
7205;SDS011;3644;53.480;10.004;2022-09-09T11:45:37;1.53;;;1.40;;
7205;SDS011;3644;53.480;10.004;2022-09-09T11:48:05;3.80;;;2.07;;
7205;SDS011;3644;53.480;10.004;2022-09-09T11:50:57;4.43;;;2.27;;
7205;SDS011;3644;53.480;10.004;2022-09-09T11:53:25;3.20;;;2.03;;
7205;SDS011;3644;53.480;10.004;2022-09-09T11:56:00;4.60;;;2.80;;
7205;SDS011;3644;53.480;10.004;2022-09-09T11:58:36;2.33;;;1.30;;
7205;SDS011;3644;53.480;10.004;2022-09-09T12:01:25;3.20;;;1.50;;
7205;SDS011;3644;53.480;10.004;2022-09-09T12:04:16;2.60;;;1.67;;
7205;SDS011;3644;53.480;10.004;2022-09-09T12:14:37;5.23;;;2.17;;
7205;SDS011;3644;53.480;10.004;2022-09-09T12:17:20;7.60;;;2.60;;
7205;SDS011;3644;53.480;10.004;2022-09-09T12:19:48;4.33;;;1.70;;
7205;SDS011;3644;53.480;10.004;2022-09-09T12:25:57;6.23;;;3.07;;
7205;SDS011;3644;53.480;10.004;2022-09-09T12:30:59;4.67;;;2.07;;
7205;SDS011;3644;53.480;10.004;2022-09-09T12:33:36;6.00;;;2.33;;
7205;SDS011;3644;53.480;10.004;2022-09-09T12:36:05;3.20;;;1.37;;
7205;SDS011;3644;53.480;10.004;2022-09-09T12:38:39;10.90;;;1.80;;
7205;SDS011;3644;53.480;10.004;2022-09-09T12:41:05;13.40;;;2.10;;
7205;SDS011;3644;53.480;10.004;2022-09-09T12:43:31;5.67;;;2.13;;
7205;SDS011;3644;53.480;10.004;2022-09-09T12:48:29;14.03;;;3.70;;
7205;SDS011;3644;53.480;10.004;2022-09-09T12:50:58;9.70;;;3.40;;
7205;SDS011;3644;53.480;10.004;2022-09-09T12:53:26;12.50;;;3.43;;
7205;SDS011;3644;53.480;10.004;2022-09-09T12:55:59;5.80;;;4.13;;
7205;SDS011;3644;53.480;10.004;2022-09-09T12:58:33;12.67;;;5.00;;
7205;SDS011;3644;53.480;10.004;2022-09-09T13:01:02;6.87;;;4.00;;
7205;SDS011;3644;53.480;10.004;2022-09-09T13:03:30;7.40;;;3.50;;
7205;SDS011;3644;53.480;10.004;2022-09-09T13:06:10;14.43;;;4.80;;
7205;SDS011;3644;53.480;10.004;2022-09-09T13:08:37;11.17;;;3.77;;
7205;SDS011;3644;53.480;10.004;2022-09-09T13:11:04;9.07;;;5.30;;
7205;SDS011;3644;53.480;10.004;2022-09-09T13:13:37;21.10;;;7.50;;
7205;SDS011;3644;53.480;10.004;2022-09-09T13:16:05;16.73;;;7.50;;
7205;SDS011;3644;53.480;10.004;2022-09-09T13:18:43;13.13;;;7.20;;
7205;SDS011;3644;53.480;10.004;2022-09-09T13:21:08;7.47;;;5.50;;
7205;SDS011;3644;53.480;10.004;2022-09-09T13:23:35;14.50;;;4.33;;
7205;SDS011;3644;53.480;10.004;2022-09-09T13:26:02;9.73;;;3.87;;
7205;SDS011;3644;53.480;10.004;2022-09-09T13:28:31;9.07;;;4.70;;
7205;SDS011;3644;53.480;10.004;2022-09-09T13:31:04;15.00;;;8.90;;
7205;SDS011;3644;53.480;10.004;2022-09-09T13:33:44;13.00;;;5.20;;
7205;SDS011;3644;53.480;10.004;2022-09-09T13:36:10;15.50;;;4.80;;
7205;SDS011;3644;53.480;10.004;2022-09-09T13:38:55;11.37;;;4.20;;
7205;SDS011;3644;53.480;10.004;2022-09-09T13:41:26;9.90;;;5.13;;
7205;SDS011;3644;53.480;10.004;2022-09-09T13:43:56;12.20;;;5.10;;
7205;SDS011;3644;53.480;10.004;2022-09-09T13:51:42;10.27;;;4.23;;
7205;SDS011;3644;53.480;10.004;2022-09-09T13:54:12;5.27;;;3.90;;
7205;SDS011;3644;53.480;10.004;2022-09-09T13:56:40;5.60;;;3.37;;
7205;SDS011;3644;53.480;10.004;2022-09-09T13:59:09;7.80;;;4.07;;
7205;SDS011;3644;53.480;10.004;2022-09-09T14:01:36;6.40;;;3.60;;
7205;SDS011;3644;53.480;10.004;2022-09-09T14:04:02;4.90;;;3.47;;
7205;SDS011;3644;53.480;10.004;2022-09-09T14:06:31;11.93;;;3.80;;
7205;SDS011;3644;53.480;10.004;2022-09-09T14:08:57;5.53;;;3.30;;
7205;SDS011;3644;53.480;10.004;2022-09-09T14:11:23;12.83;;;4.13;;
7205;SDS011;3644;53.480;10.004;2022-09-09T14:13:49;6.70;;;3.80;;
7205;SDS011;3644;53.480;10.004;2022-09-09T14:16:15;3.90;;;2.80;;
7205;SDS011;3644;53.480;10.004;2022-09-09T14:18:42;6.17;;;3.20;;
7205;SDS011;3644;53.480;10.004;2022-09-09T14:21:09;7.70;;;2.50;;
7205;SDS011;3644;53.480;10.004;2022-09-09T14:23:34;4.37;;;2.50;;
7205;SDS011;3644;53.480;10.004;2022-09-09T14:26:00;7.90;;;2.93;;
7205;SDS011;3644;53.480;10.004;2022-09-09T14:28:26;5.27;;;2.67;;
7205;SDS011;3644;53.480;10.004;2022-09-09T14:30:53;3.90;;;2.30;;
7205;SDS011;3644;53.480;10.004;2022-09-09T14:33:18;5.47;;;1.93;;
7205;SDS011;3644;53.480;10.004;2022-09-09T14:35:44;4.40;;;2.20;;
7205;SDS011;3644;53.480;10.004;2022-09-09T14:38:09;2.93;;;1.67;;
7205;SDS011;3644;53.480;10.004;2022-09-09T14:40:36;5.07;;;2.47;;
7205;SDS011;3644;53.480;10.004;2022-09-09T14:43:02;5.97;;;1.90;;
7205;SDS011;3644;53.480;10.004;2022-09-09T14:45:29;5.40;;;1.90;;
7205;SDS011;3644;53.480;10.004;2022-09-09T14:47:55;4.50;;;1.80;;
7205;SDS011;3644;53.480;10.004;2022-09-09T14:50:21;5.97;;;3.00;;
7205;SDS011;3644;53.480;10.004;2022-09-09T14:52:47;3.07;;;2.33;;
7205;SDS011;3644;53.480;10.004;2022-09-09T14:55:13;5.10;;;2.57;;
7205;SDS011;3644;53.480;10.004;2022-09-09T14:57:39;2.13;;;1.63;;
7205;SDS011;3644;53.480;10.004;2022-09-09T15:00:06;6.13;;;2.10;;
7205;SDS011;3644;53.480;10.004;2022-09-09T15:02:33;3.17;;;1.50;;
7205;SDS011;3644;53.480;10.004;2022-09-09T15:04:58;3.50;;;2.30;;
7205;SDS011;3644;53.480;10.004;2022-09-09T15:07:24;2.90;;;2.40;;
7205;SDS011;3644;53.480;10.004;2022-09-09T15:09:51;2.87;;;2.30;;
7205;SDS011;3644;53.480;10.004;2022-09-09T15:12:17;3.87;;;2.50;;
7205;SDS011;3644;53.480;10.004;2022-09-09T15:14:46;4.67;;;2.40;;
7205;SDS011;3644;53.480;10.004;2022-09-09T15:17:13;8.43;;;2.40;;
7205;SDS011;3644;53.480;10.004;2022-09-09T15:19:38;6.63;;;2.40;;
7205;SDS011;3644;53.480;10.004;2022-09-09T15:22:04;2.00;;;1.90;;
7205;SDS011;3644;53.480;10.004;2022-09-09T15:24:31;2.60;;;2.20;;
7205;SDS011;3644;53.480;10.004;2022-09-09T15:26:57;3.20;;;2.30;;
7205;SDS011;3644;53.480;10.004;2022-09-09T15:29:23;5.07;;;2.30;;
7205;SDS011;3644;53.480;10.004;2022-09-09T15:31:49;5.13;;;1.87;;
7205;SDS011;3644;53.480;10.004;2022-09-09T15:34:15;6.13;;;2.90;;
7205;SDS011;3644;53.480;10.004;2022-09-09T15:36:41;3.33;;;2.17;;
7205;SDS011;3644;53.480;10.004;2022-09-09T15:39:09;1.57;;;1.27;;
7205;SDS011;3644;53.480;10.004;2022-09-09T15:41:37;1.83;;;1.30;;
7205;SDS011;3644;53.480;10.004;2022-09-09T15:44:04;1.60;;;1.50;;
7205;SDS011;3644;53.480;10.004;2022-09-09T15:49:14;1.73;;;1.40;;
7205;SDS011;3644;53.480;10.004;2022-09-09T15:51:45;1.93;;;1.20;;
7205;SDS011;3644;53.480;10.004;2022-09-09T15:54:16;2.53;;;1.47;;
7205;SDS011;3644;53.480;10.004;2022-09-09T15:56:43;2.07;;;1.57;;
7205;SDS011;3644;53.480;10.004;2022-09-09T15:59:10;1.97;;;1.20;;
7205;SDS011;3644;53.480;10.004;2022-09-09T16:01:36;6.37;;;1.40;;
7205;SDS011;3644;53.480;10.004;2022-09-09T16:04:04;1.17;;;1.10;;
7205;SDS011;3644;53.480;10.004;2022-09-09T16:06:30;3.53;;;1.37;;
7205;SDS011;3644;53.480;10.004;2022-09-09T16:08:57;2.50;;;1.00;;
7205;SDS011;3644;53.480;10.004;2022-09-09T16:11:25;1.77;;;1.20;;
7205;SDS011;3644;53.480;10.004;2022-09-09T16:13:56;4.00;;;1.10;;
7205;SDS011;3644;53.480;10.004;2022-09-09T16:16:24;1.30;;;1.20;;
7205;SDS011;3644;53.480;10.004;2022-09-09T16:18:52;3.23;;;1.40;;
7205;SDS011;3644;53.480;10.004;2022-09-09T16:21:21;2.53;;;1.13;;
7205;SDS011;3644;53.480;10.004;2022-09-09T16:23:49;3.20;;;1.33;;
7205;SDS011;3644;53.480;10.004;2022-09-09T16:26:21;8.33;;;1.10;;
7205;SDS011;3644;53.480;10.004;2022-09-09T16:28:47;1.00;;;0.97;;
7205;SDS011;3644;53.480;10.004;2022-09-09T16:31:14;2.70;;;1.33;;
7205;SDS011;3644;53.480;10.004;2022-09-09T16:33:42;2.67;;;1.47;;
7205;SDS011;3644;53.480;10.004;2022-09-09T16:36:08;3.53;;;1.40;;
7205;SDS011;3644;53.480;10.004;2022-09-09T16:38:39;2.20;;;1.10;;
7205;SDS011;3644;53.480;10.004;2022-09-09T16:41:21;2.63;;;1.17;;
7205;SDS011;3644;53.480;10.004;2022-09-09T16:43:57;1.37;;;1.27;;
7205;SDS011;3644;53.480;10.004;2022-09-09T16:46:26;4.40;;;1.90;;
7205;SDS011;3644;53.480;10.004;2022-09-09T16:48:53;3.03;;;2.67;;
7205;SDS011;3644;53.480;10.004;2022-09-09T16:51:30;3.77;;;2.73;;
7205;SDS011;3644;53.480;10.004;2022-09-09T16:53:58;2.73;;;1.50;;
7205;SDS011;3644;53.480;10.004;2022-09-09T16:56:25;6.33;;;1.63;;
7205;SDS011;3644;53.480;10.004;2022-09-09T16:58:54;2.27;;;1.47;;
7205;SDS011;3644;53.480;10.004;2022-09-09T17:01:24;3.33;;;1.93;;
7205;SDS011;3644;53.480;10.004;2022-09-09T17:03:52;2.40;;;1.23;;
7205;SDS011;3644;53.480;10.004;2022-09-09T17:06:18;2.73;;;1.70;;
7205;SDS011;3644;53.480;10.004;2022-09-09T17:08:44;4.73;;;1.80;;
7205;SDS011;3644;53.480;10.004;2022-09-09T17:11:17;1.93;;;1.37;;
7205;SDS011;3644;53.480;10.004;2022-09-09T17:13:44;5.70;;;1.70;;
7205;SDS011;3644;53.480;10.004;2022-09-09T17:16:11;12.00;;;1.67;;
7205;SDS011;3644;53.480;10.004;2022-09-09T17:18:38;2.87;;;1.50;;